Time;durP1;ratioP1;P1;durP2;ratioP2;P2;SDS_P1;SDS_P2;PMS_P1;PMS_P2;Temp;Humidity;BMP_temperature;BMP_pressure;BME280_temperature;BME280_humidity;BME280_pressure;Samples;Min_cycle;Max_cycle;Signal;HPM_P1;HPM_P2
2024/03/14 00:01:13;;;;;;;;;;;;;;;;;;4970244;28;20389;-79
2024/03/14 00:03:40;;;;;;;;;;;;;;;;;;4978695;28;19930;-78
2024/03/14 00:06:08;;;;;;;;;;;;;;;;;;4968961;28;19931;-79
2024/03/14 00:08:35;;;;;;;;;;;;;;;;;;4975699;28;20027;-80
2024/03/14 00:11:05;;;;;;;;;;;;;;;;;;4968019;28;19969;-78
2024/03/14 00:13:33;;;;;;;;;;;;;;;;;;4963987;28;19930;-79
2024/03/14 00:16:00;;;;;;;;;;;;;;;;;;4964160;28;20013;-79
2024/03/14 00:18:28;;;;;;;;;;;;;;;;;;4964500;28;19930;-79
2024/03/14 00:20:55;;;;;;;;;;;;;;;;;;4968623;28;20027;-79
2024/03/14 00:23:23;;;;;;;;;;;;;;;;;;4968864;28;20061;-79
2024/03/14 00:25:51;;;;;;;;;;;;;;;;;;4968423;28;19956;-79
2024/03/14 00:28:18;;;;;;;;;;;;;;;;;;4969217;28;20025;-79
2024/03/14 00:30:46;;;;;;;;;;;;;;;;;;4966556;28;19969;-78
2024/03/14 00:33:14;;;;;;;;;;;;;;;;;;4968738;28;19933;-79
2024/03/14 00:35:41;;;;;;;;;;;;;;;;;;4963094;28;20519;-79
2024/03/14 00:38:08;;;;;;;;;;;;;;;;;;4964956;28;20651;-78
2024/03/14 00:40:37;;;;;;;;;;;;;;;;;;4967786;28;19934;-79
2024/03/14 00:43:04;;;;;;;;;;;;;;;;;;4967826;28;20373;-79
2024/03/14 00:45:31;;;;;;;;;;;;;;;;;;4966667;28;20101;-78
2024/03/14 00:47:58;;;;;;;;;;;;;;;;;;4968365;28;19969;-79
2024/03/14 00:50:25;;;;;;;;;;;;;;;;;;4970125;28;20035;-80
2024/03/14 00:52:52;;;;;;;;;;;;;;;;;;4966417;28;20410;-79
2024/03/14 00:55:20;;;;;;;;;;;;;;;;;;4969840;28;19965;-80
2024/03/14 00:57:47;;;;;;;;;;;;;;;;;;4970459;28;19937;-79
2024/03/14 01:00:14;;;;;;;;;;;;;;;;;;4969670;28;19930;-80
2024/03/14 01:02:42;;;;;;;;;;;;;;;;;;4972806;28;19926;-80
2024/03/14 01:05:11;;;;;;;;;;;;;;;;;;4970211;28;20009;-80
2024/03/14 01:07:38;;;;;;;;;;;;;;;;;;4970483;28;19938;-79
2024/03/14 01:10:05;;;;;;;;;;;;;;;;;;4971633;28;19934;-79
2024/03/14 01:12:33;;;;;;;;;;;;;;;;;;4970706;28;20385;-79
2024/03/14 01:15:00;;;;;;;;;;;;;;;;;;4970503;28;19976;-81
2024/03/14 01:17:27;;;;;;;;;;;;;;;;;;4962014;28;19930;-81
2024/03/14 01:19:55;;;;;;;;;;;;;;;;;;4969554;28;20370;-80
2024/03/14 01:22:22;;;;;;;;;;;;;;;;;;4967879;28;19930;-78
2024/03/14 01:24:50;;;;;;;;;;;;;;;;;;4967514;28;20347;-78
2024/03/14 01:27:18;;;;;;;;;;;;;;;;;;4968013;28;19930;-79
2024/03/14 01:29:48;;;;;;;;;;;;;;;;;;4966203;28;19934;-78
2024/03/14 01:32:15;;;;;;;;;;;;;;;;;;4969732;28;19934;-78
2024/03/14 01:34:42;;;;;;;;;;;;;;;;;;4969556;28;19930;-78
2024/03/14 01:37:10;;;;;;;;;;;;;;;;;;4967660;28;20044;-78
2024/03/14 01:39:37;;;;;;;;;;;;;;;;;;4968696;28;19936;-78
2024/03/14 01:42:05;;;;;;;;;;;;;;;;;;4968662;28;19938;-78
2024/03/14 01:44:32;;;;;;;;;;;;;;;;;;4971892;28;19937;-78
2024/03/14 01:46:59;;;;;;;;;;;;;;;;;;4970714;28;19937;-78
2024/03/14 01:49:26;;;;;;;;;;;;;;;;;;4972198;28;19972;-78
2024/03/14 01:51:53;;;;;;;;;;;;;;;;;;4968372;28;19930;-78
2024/03/14 01:54:20;;;;;;;;;;;;;;;;;;4970675;28;19926;-78
2024/03/14 01:56:57;;;;;;;;;;;;;;;;;;4969616;28;19930;-77
2024/03/14 01:59:27;;;;;;;;;;;;;;;;;;4963181;28;19992;-77
2024/03/14 02:01:54;;;;;;;;;;;;;;;;;;4968157;28;19934;-78
2024/03/14 02:04:22;;;;;;;;;;;;;;;;;;4967568;28;19937;-78
2024/03/14 02:06:50;;;;;;;;;;;;;;;;;;4966218;28;20064;-78
2024/03/14 02:09:22;;;;;;;;;;;;;;;;;;4968446;28;19930;-77
2024/03/14 02:11:49;;;;;;;;;;;;;;;;;;4968750;28;19969;-77
2024/03/14 02:14:16;;;;;;;;;;;;;;;;;;4969946;28;20027;-78
2024/03/14 02:16:43;;;;;;;;;;;;;;;;;;4963802;28;19999;-76
2024/03/14 02:19:11;;;;;;;;;;;;;;;;;;4970124;28;19981;-75
2024/03/14 02:21:39;;;;;;;;;;;;;;;;;;4967975;28;19937;-76
2024/03/14 02:24:06;;;;;;;;;;;;;;;;;;4971068;28;20384;-77
2024/03/14 02:26:34;;;;;;;;;;;;;;;;;;4970999;28;19931;-78
2024/03/14 02:29:01;;;;;;;;;;;;;;;;;;4968913;28;19945;-76
2024/03/14 02:31:28;;;;;;;;;;;;;;;;;;4970719;28;19979;-77
2024/03/14 02:33:55;;;;;;;;;;;;;;;;;;4966915;28;19973;-76
2024/03/14 02:36:22;;;;;;;;;;;;;;;;;;4969980;28;19978;-77
2024/03/14 02:38:50;;;;;;;;;;;;;;;;;;4969410;28;20369;-76
2024/03/14 02:41:17;;;;;;;;;;;;;;;;;;4970823;28;19930;-77
2024/03/14 02:43:44;;;;;;;;;;;;;;;;;;4970461;28;19926;-77
2024/03/14 02:46:11;;;;;;;;;;;;;;;;;;4970260;28;20627;-73
2024/03/14 02:48:38;;;;;;;;;;;;;;;;;;4957930;28;19930;-74
2024/03/14 02:51:05;;;;;;;;;;;;;;;;;;4969421;28;19942;-76
2024/03/14 02:53:33;;;;;;;;;;;;;;;;;;4957964;28;19980;-77
2024/03/14 02:56:00;;;;;;;;;;;;;;;;;;4977438;28;20024;-76
2024/03/14 02:58:27;;;;;;;;;;;;;;;;;;4971083;28;19953;-77
2024/03/14 03:00:54;;;;;;;;;;;;;;;;;;4970854;28;19934;-77
2024/03/14 03:03:22;;;;;;;;;;;;;;;;;;4970087;28;19930;-76
2024/03/14 03:05:49;;;;;;;;;;;;;;;;;;4970922;28;20044;-77
2024/03/14 03:08:16;;;;;;;;;;;;;;;;;;4964252;28;20009;-78
2024/03/14 03:10:43;;;;;;;;;;;;;;;;;;4966822;28;20103;-76
2024/03/14 03:13:11;;;;;;;;;;;;;;;;;;4971470;28;19934;-78
2024/03/14 03:15:38;;;;;;;;;;;;;;;;;;4971571;28;19931;-78
2024/03/14 03:18:07;;;;;;;;;;;;;;;;;;4966519;28;20229;-77
2024/03/14 03:20:34;;;;;;;;;;;;;;;;;;4967685;28;20020;-79
2024/03/14 03:23:06;;;;;;;;;;;;;;;;;;4965219;28;19960;-79
2024/03/14 03:25:33;;;;;;;;;;;;;;;;;;4964977;28;19926;-80
2024/03/14 03:27:59;;;;;;;;;;;;;;;;;;4972212;28;19941;-79
2024/03/14 03:30:27;;;;;;;;;;;;;;;;;;4971625;28;19987;-77
2024/03/14 03:32:54;;;;;;;;;;;;;;;;;;4971352;28;19938;-77
2024/03/14 03:35:21;;;;;;;;;;;;;;;;;;4969938;28;20309;-78
2024/03/14 03:37:48;;;;;;;;;;;;;;;;;;5012360;28;19937;-78
2024/03/14 03:40:21;;;;;;;;;;;;;;;;;;4969518;28;19930;-78
2024/03/14 03:42:47;;;;;;;;;;;;;;;;;;4969838;28;19983;-80
2024/03/14 03:45:14;;;;;;;;;;;;;;;;;;4975370;28;20107;-78
2024/03/14 03:47:40;;;;;;;;;;;;;;;;;;4969133;28;19930;-78
2024/03/14 03:50:09;;;;;;;;;;;;;;;;;;4969772;28;19930;-76
2024/03/14 03:52:35;;;;;;;;;;;;;;;;;;4968656;28;20477;-77
2024/03/14 03:55:04;;;;;;;;;;;;;;;;;;4969894;28;20013;-76
2024/03/14 03:57:30;;;;;;;;;;;;;;;;;;4969700;28;19930;-76
2024/03/14 03:59:58;;;;;;;;;;;;;;;;;;4968052;28;19926;-77
2024/03/14 04:02:26;;;;;;;;;;;;;;;;;;4972134;28;20025;-77
2024/03/14 04:04:57;;;;;;;;;;;;;;;;;;4959484;28;19930;-77
2024/03/14 04:07:24;;;;;;;;;;;;;;;;;;4969023;28;19948;-77
2024/03/14 04:09:51;;;;;;;;;;;;;;;;;;4969236;28;20706;-77
2024/03/14 04:12:18;;;;;;;;;;;;;;;;;;4968428;28;19942;-76
2024/03/14 04:14:45;;;;;;;;;;;;;;;;;;4969426;28;19926;-77
2024/03/14 04:17:12;;;;;;;;;;;;;;;;;;4968233;28;20003;-78
2024/03/14 04:19:40;;;;;;;;;;;;;;;;;;4968054;28;19957;-78
2024/03/14 04:22:08;;;;;;;;;;;;;;;;;;4967242;28;20183;-79
2024/03/14 04:24:35;;;;;;;;;;;;;;;;;;4969719;28;19984;-80
2024/03/14 04:27:05;;;;;;;;;;;;;;;;;;4968753;28;19930;-78
2024/03/14 04:29:32;;;;;;;;;;;;;;;;;;4969151;28;19978;-78
2024/03/14 04:31:59;;;;;;;;;;;;;;;;;;4969038;28;19933;-78
2024/03/14 04:34:26;;;;;;;;;;;;;;;;;;4968959;28;20416;-78
2024/03/14 04:36:53;;;;;;;;;;;;;;;;;;4965402;28;19967;-77
2024/03/14 04:39:20;;;;;;;;;;;;;;;;;;4968554;28;20413;-80
2024/03/14 04:41:47;;;;;;;;;;;;;;;;;;4969104;28;19973;-79
2024/03/14 04:44:15;;;;;;;;;;;;;;;;;;4969203;28;19937;-80
2024/03/14 04:46:43;;;;;;;;;;;;;;;;;;4968813;28;19970;-78
2024/03/14 04:49:10;;;;;;;;;;;;;;;;;;4967744;28;19926;-78
2024/03/14 04:51:37;;;;;;;;;;;;;;;;;;4968302;28;19992;-77
2024/03/14 04:54:04;;;;;;;;;;;;;;;;;;4968501;28;20381;-78
2024/03/14 04:56:32;;;;;;;;;;;;;;;;;;4968601;28;20401;-79
2024/03/14 04:58:59;;;;;;;;;;;;;;;;;;4968770;28;20385;-78
2024/03/14 05:01:29;;;;;;;;;;;;;;;;;;4968377;28;19926;-79
2024/03/14 05:03:57;;;;;;;;;;;;;;;;;;4972520;28;19991;-78
2024/03/14 05:06:24;;;;;;;;;;;;;;;;;;4978707;28;20016;-77
2024/03/14 05:08:51;;;;;;;;;;;;;;;;;;4971745;28;19983;-77
2024/03/14 05:11:18;;;;;;;;;;;;;;;;;;4972612;28;19973;-77
2024/03/14 05:13:47;;;;;;;;;;;;;;;;;;4972462;28;20478;-77
2024/03/14 05:16:16;;;;;;;;;;;;;;;;;;4972424;28;19933;-77
2024/03/14 05:18:43;;;;;;;;;;;;;;;;;;4971451;28;19936;-77
2024/03/14 05:21:10;;;;;;;;;;;;;;;;;;4979093;28;20380;-78
2024/03/14 05:23:37;;;;;;;;;;;;;;;;;;4976016;28;19934;-78
2024/03/14 05:26:04;;;;;;;;;;;;;;;;;;4971294;28;19980;-77
2024/03/14 05:28:31;;;;;;;;;;;;;;;;;;4971900;28;19985;-79
2024/03/14 05:30:59;;;;;;;;;;;;;;;;;;4972760;28;19930;-80
2024/03/14 05:33:26;;;;;;;;;;;;;;;;;;4972109;28;19952;-80
2024/03/14 05:35:54;;;;;;;;;;;;;;;;;;4974300;28;19936;-80
2024/03/14 05:38:21;;;;;;;;;;;;;;;;;;4985114;28;19991;-79
2024/03/14 05:40:52;;;;;;;;;;;;;;;;;;4975514;28;19934;-83
2024/03/14 05:43:20;;;;;;;;;;;;;;;;;;4975113;28;19952;-82
2024/03/14 05:45:47;;;;;;;;;;;;;;;;;;4973424;28;20339;-83
2024/03/14 05:48:15;;;;;;;;;;;;;;;;;;4974139;28;20558;-82
2024/03/14 05:50:44;;;;;;;;;;;;;;;;;;4973491;28;19976;-82
2024/03/14 05:53:11;;;;;;;;;;;;;;;;;;4974056;28;19930;-82
2024/03/14 05:55:38;;;;;;;;;;;;;;;;;;4997193;28;20385;-82
2024/03/14 05:58:06;;;;;;;;;;;;;;;;;;4961501;28;19930;-82
2024/03/14 06:00:33;;;;;;;;;;;;;;;;;;4971906;28;19980;-79
2024/03/14 06:03:00;;;;;;;;;;;;;;;;;;4977754;28;19930;-82
2024/03/14 06:05:30;;;;;;;;;;;;;;;;;;4975192;28;19930;-83
2024/03/14 06:07:58;;;;;;;;;;;;;;;;;;4963844;28;19960;-80
2024/03/14 06:10:26;;;;;;;;;;;;;;;;;;4974857;28;20392;-81
2024/03/14 06:12:53;;;;;;;;;;;;;;;;;;4980513;28;19926;-81
2024/03/14 06:15:20;;;;;;;;;;;;;;;;;;4970268;28;20031;-82
2024/03/14 06:17:50;;;;;;;;;;;;;;;;;;4972548;28;19934;-82
2024/03/14 06:20:18;;;;;;;;;;;;;;;;;;4974243;28;19956;-83
2024/03/14 06:22:45;;;;;;;;;;;;;;;;;;4993203;28;20347;-82
2024/03/14 06:25:15;;;;;;;;;;;;;;;;;;4962226;28;19930;-79
2024/03/14 06:27:42;;;;;;;;;;;;;;;;;;4956945;28;20309;-82
2024/03/14 06:30:11;;;;;;;;;;;;;;;;;;4967153;28;19983;-82
2024/03/14 06:32:38;;;;;;;;;;;;;;;;;;4960061;28;20385;-83
2024/03/14 06:35:06;;;;;;;;;;;;;;;;;;4966524;28;19988;-73
2024/03/14 06:37:34;;;;;;;;;;;;;;;;;;4961568;28;19930;-73
2024/03/14 06:40:01;;;;;;;;;;;;;;;;;;4969945;28;19969;-72
2024/03/14 06:42:28;;;;;;;;;;;;;;;;;;4953234;28;20386;-73
2024/03/14 06:44:56;;;;;;;;;;;;;;;;;;4949569;28;19930;-72
2024/03/14 06:47:23;;;;;;;;;;;;;;;;;;4968722;28;20007;-73
2024/03/14 06:49:50;;;;;;;;;;;;;;;;;;4964195;28;19930;-73
2024/03/14 06:52:18;;;;;;;;;;;;;;;;;;4967321;28;19934;-73
2024/03/14 06:54:45;;;;;;;;;;;;;;;;;;4964286;28;19934;-72
2024/03/14 06:57:12;;;;;;;;;;;;;;;;;;4963441;28;19930;-71
2024/03/14 06:59:39;;;;;;;;;;;;;;;;;;5020436;28;19930;-70
2024/03/14 07:02:07;;;;;;;;;;;;;;;;;;4954896;28;19930;-71
2024/03/14 07:04:34;;;;;;;;;;;;;;;;;;4967919;28;19976;-71
2024/03/14 07:07:03;;;;;;;;;;;;;;;;;;4969047;28;20799;-70
2024/03/14 07:09:30;;;;;;;;;;;;;;;;;;4994032;28;19936;-71
2024/03/14 07:11:57;;;;;;;;;;;;;;;;;;4958241;28;20292;-71
2024/03/14 07:14:24;;;;;;;;;;;;;;;;;;4964541;28;20384;-70
2024/03/14 07:16:51;;;;;;;;;;;;;;;;;;4954330;28;20470;-70
2024/03/14 07:19:21;;;;;;;;;;;;;;;;;;4962032;28;20025;-71
2024/03/14 07:21:49;;;;;;;;;;;;;;;;;;4980269;28;19986;-71
2024/03/14 07:24:17;;;;;;;;;;;;;;;;;;5004062;28;19934;-71
2024/03/14 07:26:44;;;;;;;;;;;;;;;;;;4961038;28;19941;-70
2024/03/14 07:29:12;;;;;;;;;;;;;;;;;;4965264;28;19930;-71
2024/03/14 07:31:42;;;;;;;;;;;;;;;;;;4964572;28;19957;-71
2024/03/14 07:34:10;;;;;;;;;;;;;;;;;;4966125;28;20045;-71
2024/03/14 07:36:38;;;;;;;;;;;;;;;;;;4961979;28;19965;-71
2024/03/14 07:39:09;;;;;;;;;;;;;;;;;;4964875;28;19977;-71
2024/03/14 07:41:37;;;;;;;;;;;;;;;;;;4975819;28;19942;-71
2024/03/14 07:44:04;;;;;;;;;;;;;;;;;;4993830;28;20049;-71
2024/03/14 07:46:31;;;;;;;;;;;;;;;;;;4960157;28;19937;-70
2024/03/14 07:48:58;;;;;;;;;;;;;;;;;;4966330;28;20081;-70
2024/03/14 07:51:26;;;;;;;;;;;;;;;;;;4963440;28;19973;-70
2024/03/14 07:53:53;;;;;;;;;;;;;;;;;;4974134;28;19940;-70
2024/03/14 07:56:21;;;;;;;;;;;;;;;;;;5047932;28;19958;-70
2024/03/14 07:58:48;;;;;;;;;;;;;;;;;;4967190;28;19979;-70
2024/03/14 08:01:15;;;;;;;;;;;;;;;;;;4971458;28;19952;-70
2024/03/14 08:03:43;;;;;;;;;;;;;;;;;;4964544;28;19930;-71
2024/03/14 08:06:10;;;;;;;;;;;;;;;;;;4965752;28;19933;-71
2024/03/14 08:08:38;;;;;;;;;;;;;;;;;;4977567;28;19983;-72
2024/03/14 08:11:09;;;;;;;;;;;;;;;;;;4965461;28;19931;-72
2024/03/14 08:13:36;;;;;;;;;;;;;;;;;;4971831;28;20430;-70
2024/03/14 08:16:14;;;;;;;;;;;;;;;;;;4959573;28;19930;-72
2024/03/14 08:18:41;;;;;;;;;;;;;;;;;;4965244;28;20339;-74
2024/03/14 08:21:12;;;;;;;;;;;;;;;;;;4966666;28;19926;-73
2024/03/14 08:23:40;;;;;;;;;;;;;;;;;;4974095;28;19934;-73
2024/03/14 08:26:08;;;;;;;;;;;;;;;;;;4960707;28;19937;-72
2024/03/14 08:28:38;;;;;;;;;;;;;;;;;;4964568;28;20046;-72
2024/03/14 08:31:06;;;;;;;;;;;;;;;;;;4964747;28;19960;-71
2024/03/14 08:33:34;;;;;;;;;;;;;;;;;;4973234;28;19984;-72
2024/03/14 08:36:02;;;;;;;;;;;;;;;;;;4970064;28;20404;-72
2024/03/14 08:38:30;;;;;;;;;;;;;;;;;;4957923;28;20404;-73
2024/03/14 08:40:58;;;;;;;;;;;;;;;;;;4974225;28;19929;-73
2024/03/14 08:43:25;;;;;;;;;;;;;;;;;;4967358;28;20462;-74
2024/03/14 08:45:52;;;;;;;;;;;;;;;;;;4965059;28;19977;-73
2024/03/14 08:48:21;;;;;;;;;;;;;;;;;;4965404;28;20321;-73
2024/03/14 08:50:48;;;;;;;;;;;;;;;;;;4962266;28;19964;-74
2024/03/14 08:53:15;;;;;;;;;;;;;;;;;;4955437;28;19969;-74
2024/03/14 08:55:52;;;;;;;;;;;;;;;;;;4965029;28;19953;-73
2024/03/14 08:58:20;;;;;;;;;;;;;;;;;;4963091;28;20033;-73
2024/03/14 09:00:48;;;;;;;;;;;;;;;;;;4966782;28;20367;-74
2024/03/14 09:03:16;;;;;;;;;;;;;;;;;;4965885;28;20760;-74
2024/03/14 09:05:44;;;;;;;;;;;;;;;;;;4964604;28;19974;-74
2024/03/14 09:08:11;;;;;;;;;;;;;;;;;;4961532;28;19934;-74
2024/03/14 09:10:38;;;;;;;;;;;;;;;;;;4960149;28;19930;-74
2024/03/14 09:13:06;;;;;;;;;;;;;;;;;;4960270;28;19935;-74
2024/03/14 09:15:33;;;;;;;;;;;;;;;;;;4966546;28;20748;-72
2024/03/14 09:18:01;;;;;;;;;;;;;;;;;;4978328;28;20346;-73
2024/03/14 09:20:28;;;;;;;;;;;;;;;;;;4974226;28;19936;-73
2024/03/14 09:22:55;;;;;;;;;;;;;;;;;;4969890;28;19930;-73
2024/03/14 09:25:22;;;;;;;;;;;;;;;;;;4954083;28;19977;-73
2024/03/14 09:27:49;;;;;;;;;;;;;;;;;;4997258;28;19930;-74
2024/03/14 09:30:17;;;;;;;;;;;;;;;;;;4973357;28;19930;-74
2024/03/14 09:32:45;;;;;;;;;;;;;;;;;;4992799;28;19935;-74
2024/03/14 09:35:15;;;;;;;;;;;;;;;;;;5010843;28;19931;-75
2024/03/14 09:37:43;;;;;;;;;;;;;;;;;;4991765;28;19968;-73
2024/03/14 09:40:13;;;;;;;;;;;;;;;;;;4961394;28;19926;-73
2024/03/14 09:42:40;;;;;;;;;;;;;;;;;;4959728;28;19965;-74
2024/03/14 09:45:07;;;;;;;;;;;;;;;;;;4984350;28;19934;-73
2024/03/14 09:47:34;;;;;;;;;;;;;;;;;;4970591;28;20305;-74
2024/03/14 09:50:01;;;;;;;;;;;;;;;;;;4970741;28;20403;-73
2024/03/14 09:52:28;;;;;;;;;;;;;;;;;;4960233;28;19958;-70
2024/03/14 09:54:56;;;;;;;;;;;;;;;;;;4967103;28;19974;-71
2024/03/14 09:57:23;;;;;;;;;;;;;;;;;;4987384;28;20281;-70
2024/03/14 09:59:51;;;;;;;;;;;;;;;;;;4962651;28;19984;-70
2024/03/14 10:02:18;;;;;;;;;;;;;;;;;;4992967;28;20284;-71
2024/03/14 10:04:45;;;;;;;;;;;;;;;;;;4970079;28;20021;-73
2024/03/14 10:07:12;;;;;;;;;;;;;;;;;;5007086;28;20276;-73
2024/03/14 10:09:41;;;;;;;;;;;;;;;;;;5029753;28;20382;-74
2024/03/14 10:12:08;;;;;;;;;;;;;;;;;;4970676;28;19938;-73
2024/03/14 10:14:36;;;;;;;;;;;;;;;;;;4968394;28;19931;-73
2024/03/14 10:17:04;;;;;;;;;;;;;;;;;;5039031;28;20302;-73
2024/03/14 10:19:35;;;;;;;;;;;;;;;;;;5004205;28;19933;-73
2024/03/14 10:22:03;;;;;;;;;;;;;;;;;;5026077;28;19930;-73
2024/03/14 10:24:30;;;;;;;;;;;;;;;;;;4983958;28;19930;-73
2024/03/14 10:26:57;;;;;;;;;;;;;;;;;;5004199;28;20606;-73
2024/03/14 10:29:24;;;;;;;;;;;;;;;;;;4979632;28;19930;-73
2024/03/14 10:31:52;;;;;;;;;;;;;;;;;;4966987;28;19930;-74
2024/03/14 10:34:20;;;;;;;;;;;;;;;;;;4962287;28;19930;-72
2024/03/14 10:36:52;;;;;;;;;;;;;;;;;;4995246;28;19934;-73
2024/03/14 10:39:20;;;;;;;;;;;;;;;;;;4966635;28;20012;-73
2024/03/14 10:41:48;;;;;;;;;;;;;;;;;;4975452;28;19973;-73
2024/03/14 10:44:15;;;;;;;;;;;;;;;;;;5031475;28;19928;-75
2024/03/14 10:46:42;;;;;;;;;;;;;;;;;;5021454;28;20008;-73
2024/03/14 10:49:10;;;;;;;;;;;;;;;;;;5030773;28;20422;-73
2024/03/14 10:51:37;;;;;;;;;;;;;;;;;;4955872;28;20041;-74
2024/03/14 10:54:04;;;;;;;;;;;;;;;;;;4958091;28;19930;-74
2024/03/14 10:56:32;;;;;;;;;;;;;;;;;;4963386;28;19934;-75
2024/03/14 10:58:59;;;;;;;;;;;;;;;;;;4997046;28;19930;-74
2024/03/14 11:01:26;;;;;;;;;;;;;;;;;;5037551;28;19928;-74
2024/03/14 11:03:53;;;;;;;;;;;;;;;;;;4969038;28;19984;-73
2024/03/14 11:06:20;;;;;;;;;;;;;;;;;;4968162;28;19931;-74
2024/03/14 11:08:48;;;;;;;;;;;;;;;;;;4967883;28;19930;-74
2024/03/14 11:11:15;;;;;;;;;;;;;;;;;;4959685;28;19934;-73
2024/03/14 11:13:44;;;;;;;;;;;;;;;;;;4968929;28;19930;-73
2024/03/14 11:16:13;;;;;;;;;;;;;;;;;;4962253;28;19937;-73
2024/03/14 11:18:41;;;;;;;;;;;;;;;;;;4957489;28;20017;-73
2024/03/14 11:21:09;;;;;;;;;;;;;;;;;;4960383;28;19964;-73
2024/03/14 11:23:37;;;;;;;;;;;;;;;;;;4967878;28;19930;-74
2024/03/14 11:26:04;;;;;;;;;;;;;;;;;;4958079;28;20023;-74
2024/03/14 11:28:31;;;;;;;;;;;;;;;;;;4968159;28;20421;-74
2024/03/14 11:31:00;;;;;;;;;;;;;;;;;;4960286;28;20024;-74
2024/03/14 11:33:27;;;;;;;;;;;;;;;;;;4963596;28;19930;-74
2024/03/14 11:35:56;;;;;;;;;;;;;;;;;;4968177;28;20013;-74
2024/03/14 11:38:24;;;;;;;;;;;;;;;;;;4971738;28;19930;-72
2024/03/14 11:40:52;;;;;;;;;;;;;;;;;;4978980;28;20052;-74
2024/03/14 11:43:20;;;;;;;;;;;;;;;;;;4967779;28;20662;-73
2024/03/14 11:45:49;;;;;;;;;;;;;;;;;;4956606;28;19960;-73
2024/03/14 11:48:19;;;;;;;;;;;;;;;;;;4968451;28;19930;-74
2024/03/14 11:50:47;;;;;;;;;;;;;;;;;;4963932;28;19930;-74
2024/03/14 11:53:14;;;;;;;;;;;;;;;;;;4964058;28;20480;-73
2024/03/14 11:55:43;;;;;;;;;;;;;;;;;;4958378;28;19965;-73
2024/03/14 11:58:10;;;;;;;;;;;;;;;;;;4967155;28;19983;-73
2024/03/14 12:00:37;;;;;;;;;;;;;;;;;;4967827;28;19937;-73
2024/03/14 12:03:05;;;;;;;;;;;;;;;;;;4980376;28;19970;-74
2024/03/14 12:05:34;;;;;;;;;;;;;;;;;;4965590;28;19992;-74
2024/03/14 12:08:03;;;;;;;;;;;;;;;;;;4953539;28;19934;-74
2024/03/14 12:10:31;;;;;;;;;;;;;;;;;;4960513;28;19984;-73
2024/03/14 12:12:58;;;;;;;;;;;;;;;;;;4960635;28;19930;-73
2024/03/14 12:15:25;;;;;;;;;;;;;;;;;;4962222;28;19937;-73
2024/03/14 12:17:52;;;;;;;;;;;;;;;;;;4963777;28;20023;-74
2024/03/14 12:20:19;;;;;;;;;;;;;;;;;;4966610;28;19969;-73
2024/03/14 12:22:46;;;;;;;;;;;;;;;;;;4972424;28;20027;-73
2024/03/14 12:25:14;;;;;;;;;;;;;;;;;;4973213;28;19930;-74
2024/03/14 12:27:42;;;;;;;;;;;;;;;;;;4980518;28;19932;-73
2024/03/14 12:30:09;;;;;;;;;;;;;;;;;;4964284;28;19992;-73
2024/03/14 12:32:37;;;;;;;;;;;;;;;;;;4979911;28;20301;-73
2024/03/14 12:35:04;;;;;;;;;;;;;;;;;;4963989;28;20061;-73
2024/03/14 12:37:32;;;;;;;;;;;;;;;;;;4964330;28;19973;-72
2024/03/14 12:40:00;;;;;;;;;;;;;;;;;;4966519;28;19930;-73
2024/03/14 12:42:27;;;;;;;;;;;;;;;;;;4960069;28;20635;-74
2024/03/14 12:44:54;;;;;;;;;;;;;;;;;;4967292;28;19974;-74
2024/03/14 12:47:23;;;;;;;;;;;;;;;;;;4974744;28;20025;-74
2024/03/14 12:49:50;;;;;;;;;;;;;;;;;;4969920;28;20017;-74
2024/03/14 12:52:18;;;;;;;;;;;;;;;;;;4965818;28;20730;-74
2024/03/14 12:54:45;;;;;;;;;;;;;;;;;;4963911;28;19930;-74
2024/03/14 12:57:13;;;;;;;;;;;;;;;;;;4962857;28;20038;-73
2024/03/14 12:59:40;;;;;;;;;;;;;;;;;;4985927;28;19930;-74
2024/03/14 13:02:08;;;;;;;;;;;;;;;;;;4966747;28;20030;-73
2024/03/14 13:04:35;;;;;;;;;;;;;;;;;;4964278;28;19930;-74
2024/03/14 13:07:04;;;;;;;;;;;;;;;;;;4974136;28;19969;-73
2024/03/14 13:09:32;;;;;;;;;;;;;;;;;;4972930;28;19948;-74
2024/03/14 13:11:59;;;;;;;;;;;;;;;;;;4965494;28;19972;-74
2024/03/14 13:14:27;;;;;;;;;;;;;;;;;;4967000;28;19936;-74
2024/03/14 13:16:54;;;;;;;;;;;;;;;;;;4967308;28;20021;-74
2024/03/14 13:19:22;;;;;;;;;;;;;;;;;;4966160;28;19988;-74
2024/03/14 13:21:50;;;;;;;;;;;;;;;;;;4957053;28;19938;-74
2024/03/14 13:24:19;;;;;;;;;;;;;;;;;;4967065;28;20347;-74
2024/03/14 13:26:46;;;;;;;;;;;;;;;;;;4965050;28;20313;-74
2024/03/14 13:29:13;;;;;;;;;;;;;;;;;;4969924;28;19996;-74
2024/03/14 13:31:40;;;;;;;;;;;;;;;;;;4968920;28;20499;-74
2024/03/14 13:34:08;;;;;;;;;;;;;;;;;;4970258;28;20668;-73
2024/03/14 13:36:40;;;;;;;;;;;;;;;;;;4967477;28;19995;-74
2024/03/14 13:39:12;;;;;;;;;;;;;;;;;;4958877;28;19930;-74
2024/03/14 13:41:41;;;;;;;;;;;;;;;;;;4968108;28;20508;-74
2024/03/14 13:44:10;;;;;;;;;;;;;;;;;;4975771;28;20012;-74
2024/03/14 13:46:41;;;;;;;;;;;;;;;;;;5008043;28;20007;-74
2024/03/14 13:49:10;;;;;;;;;;;;;;;;;;4966938;28;19965;-73
2024/03/14 13:51:37;;;;;;;;;;;;;;;;;;4969776;28;19930;-73
2024/03/14 13:54:04;;;;;;;;;;;;;;;;;;4969369;28;20377;-73
2024/03/14 13:56:31;;;;;;;;;;;;;;;;;;4970550;28;19936;-72
2024/03/14 13:58:58;;;;;;;;;;;;;;;;;;4969249;28;20279;-73
2024/03/14 14:01:25;;;;;;;;;;;;;;;;;;4969757;28;19930;-72
2024/03/14 14:03:54;;;;;;;;;;;;;;;;;;4962300;28;19941;-74
2024/03/14 14:06:22;;;;;;;;;;;;;;;;;;4964051;28;19938;-73
2024/03/14 14:08:49;;;;;;;;;;;;;;;;;;4968453;28;19934;-72
2024/03/14 14:11:20;;;;;;;;;;;;;;;;;;4967533;28;20478;-73
2024/03/14 14:13:48;;;;;;;;;;;;;;;;;;4969429;28;19986;-73
2024/03/14 14:16:16;;;;;;;;;;;;;;;;;;4974211;28;19929;-72
2024/03/14 14:18:44;;;;;;;;;;;;;;;;;;4963663;28;20385;-70
2024/03/14 14:21:11;;;;;;;;;;;;;;;;;;4964147;28;19949;-70
2024/03/14 14:23:38;;;;;;;;;;;;;;;;;;4960075;28;19988;-70
2024/03/14 14:26:07;;;;;;;;;;;;;;;;;;4963058;28;19931;-71
2024/03/14 14:28:35;;;;;;;;;;;;;;;;;;4967873;28;19931;-73
2024/03/14 14:31:02;;;;;;;;;;;;;;;;;;4968677;28;20336;-73
2024/03/14 14:33:29;;;;;;;;;;;;;;;;;;4971394;28;19934;-73
2024/03/14 14:35:57;;;;;;;;;;;;;;;;;;4963422;28;19930;-73
2024/03/14 14:38:24;;;;;;;;;;;;;;;;;;4967356;28;20389;-73
2024/03/14 14:40:52;;;;;;;;;;;;;;;;;;4968132;28;19963;-73
2024/03/14 14:43:19;;;;;;;;;;;;;;;;;;4966056;28;20411;-74
2024/03/14 14:45:46;;;;;;;;;;;;;;;;;;4957362;28;20405;-74
2024/03/14 14:48:15;;;;;;;;;;;;;;;;;;4964038;28;20452;-73
2024/03/14 14:50:42;;;;;;;;;;;;;;;;;;4968428;28;19934;-73
2024/03/14 14:53:16;;;;;;;;;;;;;;;;;;4967829;28;19996;-74
2024/03/14 14:55:43;;;;;;;;;;;;;;;;;;4968285;28;19930;-74
2024/03/14 14:58:12;;;;;;;;;;;;;;;;;;4967877;28;19937;-74
2024/03/14 15:00:39;;;;;;;;;;;;;;;;;;4968644;28;20472;-74
2024/03/14 15:03:07;;;;;;;;;;;;;;;;;;4953168;28;19930;-71
2024/03/14 15:05:34;;;;;;;;;;;;;;;;;;4960112;28;19971;-74
2024/03/14 15:08:02;;;;;;;;;;;;;;;;;;4966653;28;19970;-74
2024/03/14 15:10:29;;;;;;;;;;;;;;;;;;4967790;28;19930;-73
2024/03/14 15:12:56;;;;;;;;;;;;;;;;;;4967710;28;19969;-73
2024/03/14 15:15:25;;;;;;;;;;;;;;;;;;4968181;28;20529;-73
2024/03/14 15:17:53;;;;;;;;;;;;;;;;;;4967666;28;19988;-74
2024/03/14 15:20:21;;;;;;;;;;;;;;;;;;4965973;28;20025;-73
2024/03/14 15:22:49;;;;;;;;;;;;;;;;;;4967118;28;20055;-73
2024/03/14 15:25:18;;;;;;;;;;;;;;;;;;4968149;28;20372;-74
2024/03/14 15:27:45;;;;;;;;;;;;;;;;;;4960655;28;20397;-73
2024/03/14 15:30:13;;;;;;;;;;;;;;;;;;4968201;28;20021;-74
2024/03/14 15:32:42;;;;;;;;;;;;;;;;;;4968117;28;19930;-74
2024/03/14 15:35:11;;;;;;;;;;;;;;;;;;4968154;28;19930;-74
2024/03/14 15:37:38;;;;;;;;;;;;;;;;;;4966991;28;19930;-73
2024/03/14 15:40:07;;;;;;;;;;;;;;;;;;4967532;28;20424;-74
2024/03/14 15:42:34;;;;;;;;;;;;;;;;;;4967695;28;19969;-74
2024/03/14 15:45:02;;;;;;;;;;;;;;;;;;4968721;28;20480;-74
2024/03/14 15:47:29;;;;;;;;;;;;;;;;;;5021885;28;19937;-74
2024/03/14 15:49:56;;;;;;;;;;;;;;;;;;4968274;28;19973;-74
2024/03/14 15:52:24;;;;;;;;;;;;;;;;;;4966955;28;20451;-74
2024/03/14 15:54:51;;;;;;;;;;;;;;;;;;4967959;28;20353;-75
2024/03/14 15:57:21;;;;;;;;;;;;;;;;;;4971026;28;19938;-75
2024/03/14 15:59:49;;;;;;;;;;;;;;;;;;4964683;28;19930;-76
2024/03/14 16:02:16;;;;;;;;;;;;;;;;;;4968327;28;20404;-76
2024/03/14 16:04:45;;;;;;;;;;;;;;;;;;4964541;28;19973;-72
2024/03/14 16:07:12;;;;;;;;;;;;;;;;;;4973633;28;19983;-73
2024/03/14 16:09:40;;;;;;;;;;;;;;;;;;4966732;28;20319;-74
2024/03/14 16:12:08;;;;;;;;;;;;;;;;;;4965476;28;19930;-74
2024/03/14 16:14:35;;;;;;;;;;;;;;;;;;4966269;28;19930;-74
2024/03/14 16:17:02;;;;;;;;;;;;;;;;;;4966169;28;19981;-74
2024/03/14 16:19:29;;;;;;;;;;;;;;;;;;4957819;28;20000;-74
2024/03/14 16:21:56;;;;;;;;;;;;;;;;;;4958383;28;19933;-74
2024/03/14 16:24:25;;;;;;;;;;;;;;;;;;4966497;28;19971;-75
2024/03/14 16:26:53;;;;;;;;;;;;;;;;;;4960216;28;19941;-74
2024/03/14 16:29:21;;;;;;;;;;;;;;;;;;4962136;28;19960;-73
2024/03/14 16:31:50;;;;;;;;;;;;;;;;;;4963650;28;19973;-74
2024/03/14 16:34:17;;;;;;;;;;;;;;;;;;4962895;28;20267;-74
2024/03/14 16:36:45;;;;;;;;;;;;;;;;;;4965696;28;20012;-75
2024/03/14 16:39:18;;;;;;;;;;;;;;;;;;4965708;28;19985;-74
2024/03/14 16:41:45;;;;;;;;;;;;;;;;;;4964491;28;19988;-73
2024/03/14 16:44:13;;;;;;;;;;;;;;;;;;4964648;28;19941;-74
2024/03/14 16:46:40;;;;;;;;;;;;;;;;;;4966612;28;19967;-73
2024/03/14 16:49:07;;;;;;;;;;;;;;;;;;4966325;28;19976;-73